Abare, Brazil
Current Conditions -  °F | °C
As of 8:00 PM on Sunday 21 Dec 2014 (Local Time) from SBUF Reporting Station
Clear Clear  
Wind Chill: 86°   Ceiling: Unl
Heat Index: 90°   Visibility: 6mi
Dew Point: 70°   Wind: 18mph
Humidity: 58%   Direction: 120°ESE
Pressure: 29.94"   Gusts: NA
Location:  8.72°S, 39.11°W
Report Text: SBUF 212300Z 12016KT CAVOK 30/21 Q1014
Loading
Personal Weather Stations






























Interactive Weather Map New forecast layout! Learn more

10-Day Weather Forecast

Advertisements
Track Severe Weather on mobile